sensor_id;sensor_type;location;lat;lon;timestamp;pressure;altitude;pressure_sealevel;temperature;humidity
56671;BME280;42545;50.054;8.306;2023-07-02T00:01:56;99233.34;;;14.69;100.00
56671;BME280;42545;50.054;8.306;2023-07-02T00:04:23;99237.78;;;14.70;100.00
56671;BME280;42545;50.054;8.306;2023-07-02T00:06:51;99228.91;;;14.69;100.00
56671;BME280;42545;50.054;8.306;2023-07-02T00:09:19;99237.78;;;14.71;100.00
56671;BME280;42545;50.054;8.306;2023-07-02T00:11:46;99234.28;;;14.68;100.00
56671;BME280;42545;50.054;8.306;2023-07-02T00:14:13;99240.47;;;14.67;100.00
56671;BME280;42545;50.054;8.306;2023-07-02T00:16:43;99252.03;;;14.64;100.00
56671;BME280;42545;50.054;8.306;2023-07-02T00:19:11;99250.25;;;14.61;100.00
56671;BME280;42545;50.054;8.306;2023-07-02T00:21:40;99251.22;;;14.57;100.00
56671;BME280;42545;50.054;8.306;2023-07-02T00:24:09;99251.22;;;14.54;100.00
56671;BME280;42545;50.054;8.306;2023-07-02T00:26:37;99250.44;;;14.48;100.00
56671;BME280;42545;50.054;8.306;2023-07-02T00:29:05;99253.97;;;14.45;100.00
56671;BME280;42545;50.054;8.306;2023-07-02T00:31:33;99248.78;;;14.37;100.00
56671;BME280;42545;50.054;8.306;2023-07-02T00:34:00;99255.00;;;14.35;100.00
56671;BME280;42545;50.054;8.306;2023-07-02T00:36:28;99248.78;;;14.34;100.00
56671;BME280;42545;50.054;8.306;2023-07-02T00:38:56;99240.84;;;14.33;100.00
56671;BME280;42545;50.054;8.306;2023-07-02T00:41:25;99249.75;;;14.30;100.00
56671;BME280;42545;50.054;8.306;2023-07-02T00:43:51;99240.91;;;14.28;100.00
56671;BME280;42545;50.054;8.306;2023-07-02T00:46:20;99235.63;;;14.27;100.00
56671;BME280;42545;50.054;8.306;2023-07-02T00:48:49;99230.31;;;14.28;100.00
56671;BME280;42545;50.054;8.306;2023-07-02T00:51:17;99224.16;;;14.25;100.00
56671;BME280;42545;50.054;8.306;2023-07-02T00:53:45;99226.84;;;14.20;100.00
56671;BME280;42545;50.054;8.306;2023-07-02T00:56:13;99225.09;;;14.20;100.00
56671;BME280;42545;50.054;8.306;2023-07-02T00:58:44;99223.31;;;14.22;100.00
56671;BME280;42545;50.054;8.306;2023-07-02T01:01:15;99238.38;;;14.20;100.00
56671;BME280;42545;50.054;8.306;2023-07-02T01:03:53;99240.19;;;14.14;100.00
56671;BME280;42545;50.054;8.306;2023-07-02T01:06:23;99248.22;;;14.09;100.00
56671;BME280;42545;50.054;8.306;2023-07-02T01:08:54;99247.38;;;14.04;100.00
56671;BME280;42545;50.054;8.306;2023-07-02T01:11:23;99247.47;;;13.96;100.00
56671;BME280;42545;50.054;8.306;2023-07-02T01:13:58;99244.00;;;13.91;100.00
56671;BME280;42545;50.054;8.306;2023-07-02T01:16:26;99244.88;;;13.87;100.00
56671;BME280;42545;50.054;8.306;2023-07-02T01:18:58;99256.44;;;13.83;100.00
56671;BME280;42545;50.054;8.306;2023-07-02T01:21:32;99245.88;;;13.78;100.00
56671;BME280;42545;50.054;8.306;2023-07-02T01:24:00;99240.63;;;13.71;100.00
56671;BME280;42545;50.054;8.306;2023-07-02T01:26:29;99238.88;;;13.70;100.00
56671;BME280;42545;50.054;8.306;2023-07-02T01:28:59;99247.78;;;13.64;100.00
56671;BME280;42545;50.054;8.306;2023-07-02T01:31:25;99241.63;;;13.59;100.00
56671;BME280;42545;50.054;8.306;2023-07-02T01:33:52;99243.44;;;13.54;100.00
56671;BME280;42545;50.054;8.306;2023-07-02T01:36:19;99250.53;;;13.49;100.00
56671;BME280;42545;50.054;8.306;2023-07-02T01:38:47;99254.09;;;13.48;100.00
56671;BME280;42545;50.054;8.306;2023-07-02T01:41:14;99254.13;;;13.43;100.00
56671;BME280;42545;50.054;8.306;2023-07-02T01:43:41;99249.75;;;13.40;100.00
56671;BME280;42545;50.054;8.306;2023-07-02T01:46:08;99254.19;;;13.35;100.00
56671;BME280;42545;50.054;8.306;2023-07-02T01:48:35;99249.78;;;13.30;100.00
56671;BME280;42545;50.054;8.306;2023-07-02T01:51:01;99249.78;;;13.28;100.00
56671;BME280;42545;50.054;8.306;2023-07-02T01:53:28;99248.94;;;13.24;100.00
56671;BME280;42545;50.054;8.306;2023-07-02T01:55:56;99256.03;;;13.21;100.00
56671;BME280;42545;50.054;8.306;2023-07-02T01:58:24;99257.81;;;13.20;100.00
56671;BME280;42545;50.054;8.306;2023-07-02T02:00:51;99245.50;;;13.13;100.00
56671;BME280;42545;50.054;8.306;2023-07-02T02:03:18;99260.44;;;13.22;100.00
56671;BME280;42545;50.054;8.306;2023-07-02T02:05:45;99255.16;;;13.22;100.00
56671;BME280;42545;50.054;8.306;2023-07-02T02:08:12;99257.81;;;13.20;100.00
56671;BME280;42545;50.054;8.306;2023-07-02T02:10:38;99258.69;;;13.19;100.00
56671;BME280;42545;50.054;8.306;2023-07-02T02:13:07;99256.09;;;13.16;100.00
56671;BME280;42545;50.054;8.306;2023-07-02T02:15:33;99261.34;;;13.19;100.00
56671;BME280;42545;50.054;8.306;2023-07-02T02:18:00;99264.88;;;13.18;100.00
56671;BME280;42545;50.054;8.306;2023-07-02T02:20:27;99265.78;;;13.16;100.00
56671;BME280;42545;50.054;8.306;2023-07-02T02:22:53;99276.41;;;13.13;100.00
56671;BME280;42545;50.054;8.306;2023-07-02T02:25:20;99272.91;;;13.11;100.00
56671;BME280;42545;50.054;8.306;2023-07-02T02:27:47;99279.06;;;13.08;100.00
56671;BME280;42545;50.054;8.306;2023-07-02T02:30:15;99279.97;;;13.05;100.00
56671;BME280;42545;50.054;8.306;2023-07-02T02:32:42;99284.38;;;13.05;100.00
56671;BME280;42545;50.054;8.306;2023-07-02T02:35:08;99286.16;;;13.06;100.00
56671;BME280;42545;50.054;8.306;2023-07-02T02:37:37;99291.44;;;13.07;100.00
56671;BME280;42545;50.054;8.306;2023-07-02T02:40:07;99287.00;;;13.08;100.00
56671;BME280;42545;50.054;8.306;2023-07-02T02:42:35;99292.31;;;13.10;100.00
56671;BME280;42545;50.054;8.306;2023-07-02T02:45:02;99293.19;;;13.10;100.00
56671;BME280;42545;50.054;8.306;2023-07-02T02:47:30;99303.78;;;13.12;100.00
56671;BME280;42545;50.054;8.306;2023-07-02T02:49:57;99296.69;;;13.14;100.00
56671;BME280;42545;50.054;8.306;2023-07-02T02:52:23;99295.81;;;13.15;100.00
56671;BME280;42545;50.054;8.306;2023-07-02T02:54:50;99292.31;;;13.10;100.00
56671;BME280;42545;50.054;8.306;2023-07-02T02:57:18;99300.25;;;13.11;100.00
56671;BME280;42545;50.054;8.306;2023-07-02T02:59:45;99303.78;;;13.08;100.00
56671;BME280;42545;50.054;8.306;2023-07-02T03:02:12;99304.69;;;13.06;100.00
56671;BME280;42545;50.054;8.306;2023-07-02T03:04:41;99304.69;;;13.04;100.00
56671;BME280;42545;50.054;8.306;2023-07-02T03:07:10;99297.66;;;13.02;100.00
56671;BME280;42545;50.054;8.306;2023-07-02T03:09:37;99295.00;;;13.03;100.00
56671;BME280;42545;50.054;8.306;2023-07-02T03:12:04;99309.13;;;13.07;100.00
56671;BME280;42545;50.054;8.306;2023-07-02T03:14:30;99302.03;;;13.06;100.00
56671;BME280;42545;50.054;8.306;2023-07-02T03:16:57;99294.97;;;13.06;100.00
56671;BME280;42545;50.054;8.306;2023-07-02T03:19:24;99300.25;;;13.08;100.00
56671;BME280;42545;50.054;8.306;2023-07-02T03:21:52;99299.38;;;13.11;100.00
56671;BME280;42545;50.054;8.306;2023-07-02T03:24:19;99299.34;;;13.12;100.00
56671;BME280;42545;50.054;8.306;2023-07-02T03:26:45;99300.25;;;13.10;100.00
56671;BME280;42545;50.054;8.306;2023-07-02T03:29:12;99300.25;;;13.10;100.00
56671;BME280;42545;50.054;8.306;2023-07-02T03:31:39;99300.25;;;13.11;100.00
56671;BME280;42545;50.054;8.306;2023-07-02T03:34:07;99305.56;;;13.11;100.00
56671;BME280;42545;50.054;8.306;2023-07-02T03:36:35;99307.28;;;13.12;100.00
56671;BME280;42545;50.054;8.306;2023-07-02T03:39:04;99307.34;;;13.09;100.00
56671;BME280;42545;50.054;8.306;2023-07-02T03:41:31;99301.19;;;13.04;100.00
56671;BME280;42545;50.054;8.306;2023-07-02T03:43:58;99309.97;;;13.11;100.00
56671;BME280;42545;50.054;8.306;2023-07-02T03:46:24;99310.84;;;13.11;100.00
56671;BME280;42545;50.054;8.306;2023-07-02T03:48:51;99324.97;;;13.12;100.00
56671;BME280;42545;50.054;8.306;2023-07-02T03:51:18;99319.66;;;13.13;100.00
56671;BME280;42545;50.054;8.306;2023-07-02T03:53:45;99317.91;;;13.11;100.00
56671;BME280;42545;50.054;8.306;2023-07-02T03:56:13;99319.66;;;13.12;100.00
56671;BME280;42545;50.054;8.306;2023-07-02T03:58:40;99319.66;;;13.13;100.00
56671;BME280;42545;50.054;8.306;2023-07-02T04:01:06;99324.03;;;13.17;100.00
56671;BME280;42545;50.054;8.306;2023-07-02T04:03:33;99327.59;;;13.15;100.00
56671;BME280;42545;50.054;8.306;2023-07-02T04:06:00;99321.41;;;13.17;100.00
56671;BME280;42545;50.054;8.306;2023-07-02T04:08:27;99330.25;;;13.16;100.00
56671;BME280;42545;50.054;8.306;2023-07-02T04:10:54;99326.72;;;13.14;100.00
56671;BME280;42545;50.054;8.306;2023-07-02T04:13:22;99332.91;;;13.15;100.00
56671;BME280;42545;50.054;8.306;2023-07-02T04:15:48;99327.59;;;13.13;100.00
56671;BME280;42545;50.054;8.306;2023-07-02T04:18:15;99337.31;;;13.14;100.00
56671;BME280;42545;50.054;8.306;2023-07-02T04:20:42;99340.84;;;13.15;100.00
56671;BME280;42545;50.054;8.306;2023-07-02T04:23:08;99347.88;;;13.17;100.00
56671;BME280;42545;50.054;8.306;2023-07-02T04:25:35;99340.81;;;13.19;100.00
56671;BME280;42545;50.054;8.306;2023-07-02T04:28:02;99350.53;;;13.20;100.00
56671;BME280;42545;50.054;8.306;2023-07-02T04:30:30;99349.63;;;13.23;100.00
56671;BME280;42545;50.054;8.306;2023-07-02T04:32:57;99345.22;;;13.20;100.00
56671;BME280;42545;50.054;8.306;2023-07-02T04:35:24;99349.63;;;13.24;100.00
56671;BME280;42545;50.054;8.306;2023-07-02T04:37:50;99352.25;;;13.26;100.00
56671;BME280;42545;50.054;8.306;2023-07-02T04:40:17;99361.97;;;13.24;100.00
56671;BME280;42545;50.054;8.306;2023-07-02T04:42:45;99361.13;;;13.22;100.00
56671;BME280;42545;50.054;8.306;2023-07-02T04:45:14;99356.69;;;13.24;100.00
56671;BME280;42545;50.054;8.306;2023-07-02T04:47:43;99367.25;;;13.28;100.00
56671;BME280;42545;50.054;8.306;2023-07-02T04:50:11;99371.66;;;13.30;100.00
56671;BME280;42545;50.054;8.306;2023-07-02T04:52:38;99376.09;;;13.32;100.00
56671;BME280;42545;50.054;8.306;2023-07-02T04:55:05;99381.38;;;13.34;100.00
56671;BME280;42545;50.054;8.306;2023-07-02T04:57:32;99371.66;;;13.36;100.00
56671;BME280;42545;50.054;8.306;2023-07-02T04:59:59;99370.78;;;13.35;100.00
56671;BME280;42545;50.054;8.306;2023-07-02T05:02:25;99370.72;;;13.41;100.00
56671;BME280;42545;50.054;8.306;2023-07-02T05:04:54;99383.09;;;13.42;100.00
56671;BME280;42545;50.054;8.306;2023-07-02T05:07:21;99377.81;;;13.44;100.00
56671;BME280;42545;50.054;8.306;2023-07-02T05:09:48;99388.41;;;13.47;100.00
56671;BME280;42545;50.054;8.306;2023-07-02T05:12:17;99386.63;;;13.44;100.00
56671;BME280;42545;50.054;8.306;2023-07-02T05:14:43;99393.69;;;13.47;100.00
56671;BME280;42545;50.054;8.306;2023-07-02T05:17:10;99390.13;;;13.46;100.00
56671;BME280;42545;50.054;8.306;2023-07-02T05:19:38;99397.22;;;13.46;100.00
56671;BME280;42545;50.054;8.306;2023-07-02T05:22:09;99388.41;;;13.44;100.00
56671;BME280;42545;50.054;8.306;2023-07-02T05:24:36;99389.28;;;13.46;100.00
56671;BME280;42545;50.054;8.306;2023-07-02T05:27:04;99392.78;;;13.50;100.00
56671;BME280;42545;50.054;8.306;2023-07-02T05:29:30;99380.41;;;13.52;100.00
56671;BME280;42545;50.054;8.306;2023-07-02T05:31:58;99393.56;;;13.64;100.00
56671;BME280;42545;50.054;8.306;2023-07-02T05:34:25;99391.72;;;13.74;100.00
56671;BME280;42545;50.054;8.306;2023-07-02T05:36:52;99397.00;;;13.80;100.00
56671;BME280;42545;50.054;8.306;2023-07-02T05:39:20;99396.97;;;13.84;100.00
56671;BME280;42545;50.054;8.306;2023-07-02T05:41:48;99398.69;;;13.89;100.00
56671;BME280;42545;50.054;8.306;2023-07-02T05:44:15;99396.91;;;13.92;100.00
56671;BME280;42545;50.054;8.306;2023-07-02T05:46:44;99400.38;;;13.99;100.00
56671;BME280;42545;50.054;8.306;2023-07-02T05:49:16;99373.00;;;13.95;100.00
56671;BME280;42545;50.054;8.306;2023-07-02T05:51:42;99378.22;;;14.06;100.00
56671;BME280;42545;50.054;8.306;2023-07-02T05:54:09;99408.13;;;14.25;100.00
56671;BME280;42545;50.054;8.306;2023-07-02T05:56:38;99402.72;;;14.33;100.00
56671;BME280;42545;50.054;8.306;2023-07-02T05:59:07;99392.16;;;14.31;100.00
56671;BME280;42545;50.054;8.306;2023-07-02T06:01:33;99414.09;;;14.47;99.43
56671;BME280;42545;50.054;8.306;2023-07-02T06:04:00;99422.03;;;14.53;99.42
56671;BME280;42545;50.054;8.306;2023-07-02T06:06:27;99412.28;;;14.58;99.37
56671;BME280;42545;50.054;8.306;2023-07-02T06:08:55;99414.00;;;14.59;98.63
56671;BME280;42545;50.054;8.306;2023-07-02T06:11:28;99391.06;;;14.49;98.74
56671;BME280;42545;50.054;8.306;2023-07-02T06:13:56;99419.25;;;14.67;98.00
56671;BME280;42545;50.054;8.306;2023-07-02T06:16:22;99416.56;;;14.70;97.87
56671;BME280;42545;50.054;8.306;2023-07-02T06:18:50;99421.84;;;14.73;97.61
56671;BME280;42545;50.054;8.306;2023-07-02T06:21:16;99425.34;;;14.77;96.00
56671;BME280;42545;50.054;8.306;2023-07-02T06:23:45;99427.94;;;14.80;96.15
56671;BME280;42545;50.054;8.306;2023-07-02T06:26:12;99406.75;;;14.77;96.23
56671;BME280;42545;50.054;8.306;2023-07-02T06:28:39;99424.34;;;14.87;95.74
56671;BME280;42545;50.054;8.306;2023-07-02T06:31:07;99420.78;;;14.91;95.71
56671;BME280;42545;50.054;8.306;2023-07-02T06:33:33;99424.22;;;14.96;95.85
56671;BME280;42545;50.054;8.306;2023-07-02T06:36:00;99429.44;;;15.06;95.26
56671;BME280;42545;50.054;8.306;2023-07-02T06:38:31;99423.22;;;15.10;95.12
56671;BME280;42545;50.054;8.306;2023-07-02T06:40:59;99431.00;;;15.22;94.64
56671;BME280;42545;50.054;8.306;2023-07-02T06:43:28;99430.94;;;15.28;93.74
56671;BME280;42545;50.054;8.306;2023-07-02T06:45:55;99422.03;;;15.32;93.33
56671;BME280;42545;50.054;8.306;2023-07-02T06:48:24;99436.88;;;15.49;92.97
56671;BME280;42545;50.054;8.306;2023-07-02T06:50:50;99437.59;;;15.62;92.55
56671;BME280;42545;50.054;8.306;2023-07-02T06:53:21;99440.06;;;15.77;90.42
56671;BME280;42545;50.054;8.306;2023-07-02T06:55:48;99441.66;;;15.87;88.90
56671;BME280;42545;50.054;8.306;2023-07-02T06:58:15;99445.13;;;15.95;87.39
56671;BME280;42545;50.054;8.306;2023-07-02T07:00:41;99445.88;;;16.02;88.19
56671;BME280;42545;50.054;8.306;2023-07-02T07:03:08;99449.22;;;16.15;88.04
56671;BME280;42545;50.054;8.306;2023-07-02T07:05:36;99450.81;;;16.28;87.76
56671;BME280;42545;50.054;8.306;2023-07-02T07:08:05;99450.53;;;16.44;86.98
56671;BME280;42545;50.054;8.306;2023-07-02T07:10:31;99449.47;;;16.54;85.48
56671;BME280;42545;50.054;8.306;2023-07-02T07:13:00;99457.28;;;16.65;85.37
56671;BME280;42545;50.054;8.306;2023-07-02T07:15:33;99447.34;;;16.71;84.94
56671;BME280;42545;50.054;8.306;2023-07-02T07:18:01;99445.69;;;16.66;84.04
56671;BME280;42545;50.054;8.306;2023-07-02T07:20:27;99458.84;;;16.75;83.69
56671;BME280;42545;50.054;8.306;2023-07-02T07:22:56;99453.44;;;16.80;83.53
56671;BME280;42545;50.054;8.306;2023-07-02T07:25:22;99453.41;;;16.81;83.56
56671;BME280;42545;50.054;8.306;2023-07-02T07:27:49;99456.72;;;16.96;83.82
56671;BME280;42545;50.054;8.306;2023-07-02T07:30:16;99453.91;;;17.03;83.38
56671;BME280;42545;50.054;8.306;2023-07-02T07:32:48;99450.00;;;17.21;83.34
56671;BME280;42545;50.054;8.306;2023-07-02T07:35:14;99450.75;;;17.28;81.49
56671;BME280;42545;50.054;8.306;2023-07-02T07:37:41;99447.81;;;17.40;81.81
56671;BME280;42545;50.054;8.306;2023-07-02T07:40:10;99452.16;;;17.46;81.24
56671;BME280;42545;50.054;8.306;2023-07-02T07:42:37;99449.44;;;17.47;81.02
56671;BME280;42545;50.054;8.306;2023-07-02T07:45:04;99448.53;;;17.48;80.30
56671;BME280;42545;50.054;8.306;2023-07-02T07:47:31;99450.16;;;17.56;80.53
56671;BME280;42545;50.054;8.306;2023-07-02T07:49:58;99441.44;;;17.47;78.97
56671;BME280;42545;50.054;8.306;2023-07-02T07:52:25;99449.31;;;17.54;80.05
56671;BME280;42545;50.054;8.306;2023-07-02T07:54:52;99449.25;;;17.57;80.12
56671;BME280;42545;50.054;8.306;2023-07-02T07:57:20;99453.63;;;17.59;80.33
56671;BME280;42545;50.054;8.306;2023-07-02T07:59:46;99451.06;;;17.56;77.90
56671;BME280;42545;50.054;8.306;2023-07-02T08:02:13;99453.81;;;17.50;77.02
56671;BME280;42545;50.054;8.306;2023-07-02T08:04:39;99453.81;;;17.50;77.84
56671;BME280;42545;50.054;8.306;2023-07-02T08:07:06;99458.22;;;17.54;78.02
56671;BME280;42545;50.054;8.306;2023-07-02T08:09:34;99450.81;;;17.67;78.63
56671;BME280;42545;50.054;8.306;2023-07-02T08:12:00;99454.09;;;17.80;77.79
56671;BME280;42545;50.054;8.306;2023-07-02T08:14:29;99453.94;;;17.88;77.47
56671;BME280;42545;50.054;8.306;2023-07-02T08:16:56;99462.38;;;18.06;78.20
56671;BME280;42545;50.054;8.306;2023-07-02T08:19:23;99459.34;;;18.22;76.80
56671;BME280;42545;50.054;8.306;2023-07-02T08:21:50;99465.31;;;18.33;76.86
56671;BME280;42545;50.054;8.306;2023-07-02T08:24:17;99455.25;;;18.43;74.67
56671;BME280;42545;50.054;8.306;2023-07-02T08:26:43;99464.94;;;18.47;73.63
56671;BME280;42545;50.054;8.306;2023-07-02T08:29:12;99456.03;;;18.48;72.32
56671;BME280;42545;50.054;8.306;2023-07-02T08:31:40;99460.28;;;18.55;71.48
56671;BME280;42545;50.054;8.306;2023-07-02T08:34:07;99451.19;;;18.62;70.82
56671;BME280;42545;50.054;8.306;2023-07-02T08:36:33;99451.84;;;18.71;69.85
56671;BME280;42545;50.054;8.306;2023-07-02T08:39:00;99461.44;;;18.79;68.86
56671;BME280;42545;50.054;8.306;2023-07-02T08:41:28;99461.00;;;18.96;70.56
56671;BME280;42545;50.054;8.306;2023-07-02T08:43:57;99458.72;;;19.15;69.11
56671;BME280;42545;50.054;8.306;2023-07-02T08:46:24;99458.53;;;19.21;68.78
56671;BME280;42545;50.054;8.306;2023-07-02T08:48:52;99461.03;;;19.28;67.86
56671;BME280;42545;50.054;8.306;2023-07-02T08:51:20;99457.38;;;19.30;67.68
56671;BME280;42545;50.054;8.306;2023-07-02T08:53:49;99466.84;;;19.42;67.79
56671;BME280;42545;50.054;8.306;2023-07-02T08:56:17;99465.53;;;19.57;66.98
56671;BME280;42545;50.054;8.306;2023-07-02T08:58:43;99466.13;;;19.67;66.71
56671;BME280;42545;50.054;8.306;2023-07-02T09:01:11;99466.78;;;19.75;66.33
56671;BME280;42545;50.054;8.306;2023-07-02T09:03:39;99457.94;;;19.73;65.79
56671;BME280;42545;50.054;8.306;2023-07-02T09:06:10;99459.13;;;19.63;65.12
56671;BME280;42545;50.054;8.306;2023-07-02T09:08:37;99460.31;;;19.52;64.68
56671;BME280;42545;50.054;8.306;2023-07-02T09:11:08;99467.44;;;19.53;65.44
56671;BME280;42545;50.054;8.306;2023-07-02T09:13:42;99459.25;;;19.58;64.88
56671;BME280;42545;50.054;8.306;2023-07-02T09:16:22;99471.41;;;19.70;61.80
56671;BME280;42545;50.054;8.306;2023-07-02T09:19:00;99479.13;;;19.81;62.08
56671;BME280;42545;50.054;8.306;2023-07-02T09:21:39;99475.94;;;19.97;61.42
56671;BME280;42545;50.054;8.306;2023-07-02T09:24:16;99478.25;;;20.08;60.37
56671;BME280;42545;50.054;8.306;2023-07-02T09:26:44;99470.06;;;20.13;60.56
56671;BME280;42545;50.054;8.306;2023-07-02T09:29:11;99481.16;;;20.29;60.68
56671;BME280;42545;50.054;8.306;2023-07-02T09:31:45;99481.59;;;20.43;60.20
56671;BME280;42545;50.054;8.306;2023-07-02T09:34:12;99474.25;;;20.50;59.49
56671;BME280;42545;50.054;8.306;2023-07-02T09:36:42;99475.16;;;20.49;59.36
56671;BME280;42545;50.054;8.306;2023-07-02T09:39:12;99471.34;;;20.56;60.19
56671;BME280;42545;50.054;8.306;2023-07-02T09:41:39;99471.16;;;20.62;56.62
56671;BME280;42545;50.054;8.306;2023-07-02T09:44:07;99472.91;;;20.63;56.61
56671;BME280;42545;50.054;8.306;2023-07-02T09:46:37;99476.09;;;20.74;56.48
56671;BME280;42545;50.054;8.306;2023-07-02T09:49:06;99474.88;;;20.85;55.51
56671;BME280;42545;50.054;8.306;2023-07-02T09:51:34;99478.19;;;20.91;54.85
56671;BME280;42545;50.054;8.306;2023-07-02T09:54:03;99479.84;;;20.96;54.08
56671;BME280;42545;50.054;8.306;2023-07-02T09:56:29;99479.41;;;20.83;53.28
56671;BME280;42545;50.054;8.306;2023-07-02T09:58:56;99479.81;;;20.70;54.58
56671;BME280;42545;50.054;8.306;2023-07-02T10:01:23;99482.78;;;20.63;55.54
56671;BME280;42545;50.054;8.306;2023-07-02T10:03:50;99477.63;;;20.55;55.38
56671;BME280;42545;50.054;8.306;2023-07-02T10:06:17;99484.28;;;20.43;54.89
56671;BME280;42545;50.054;8.306;2023-07-02T10:08:52;99487.25;;;20.34;56.37
56671;BME280;42545;50.054;8.306;2023-07-02T10:11:20;99489.16;;;20.30;57.42
56671;BME280;42545;50.054;8.306;2023-07-02T10:13:57;99481.81;;;20.37;57.17
56671;BME280;42545;50.054;8.306;2023-07-02T10:16:24;99481.81;;;20.37;55.41
56671;BME280;42545;50.054;8.306;2023-07-02T10:18:52;99483.03;;;20.27;55.97
56671;BME280;42545;50.054;8.306;2023-07-02T10:21:19;99486.97;;;20.15;57.12
56671;BME280;42545;50.054;8.306;2023-07-02T10:23:46;99493.41;;;20.09;57.03
56671;BME280;42545;50.054;8.306;2023-07-02T10:26:14;99482.97;;;20.00;57.07
56671;BME280;42545;50.054;8.306;2023-07-02T10:28:55;99488.44;;;19.97;56.40
56671;BME280;42545;50.054;8.306;2023-07-02T10:31:21;99485.41;;;20.08;56.62
56671;BME280;42545;50.054;8.306;2023-07-02T10:33:48;99477.66;;;20.27;57.11
56671;BME280;42545;50.054;8.306;2023-07-02T10:36:18;99477.19;;;20.41;56.40
56671;BME280;42545;50.054;8.306;2023-07-02T10:38:48;99477.88;;;20.47;55.06
56671;BME280;42545;50.054;8.306;2023-07-02T10:41:24;99487.78;;;20.45;55.21
56671;BME280;42545;50.054;8.306;2023-07-02T10:43:53;99486.19;;;20.40;54.83
56671;BME280;42545;50.054;8.306;2023-07-02T10:46:19;99489.72;;;20.40;54.32
56671;BME280;42545;50.054;8.306;2023-07-02T10:48:53;99477.88;;;20.47;53.77
56671;BME280;42545;50.054;8.306;2023-07-02T10:51:20;99482.06;;;20.56;53.27
56671;BME280;42545;50.054;8.306;2023-07-02T10:53:58;99495.38;;;20.59;52.50
56671;BME280;42545;50.054;8.306;2023-07-02T10:56:26;99495.47;;;20.56;50.94
56671;BME280;42545;50.054;8.306;2023-07-02T10:58:54;99482.47;;;20.44;50.23
56671;BME280;42545;50.054;8.306;2023-07-02T11:01:22;99487.09;;;20.39;51.43
56671;BME280;42545;50.054;8.306;2023-07-02T11:03:55;99489.59;;;20.45;52.80
56671;BME280;42545;50.054;8.306;2023-07-02T11:06:22;99485.00;;;20.48;53.06
56671;BME280;42545;50.054;8.306;2023-07-02T11:08:49;99483.06;;;20.53;52.93
56671;BME280;42545;50.054;8.306;2023-07-02T11:11:16;99493.56;;;20.60;52.01
56671;BME280;42545;50.054;8.306;2023-07-02T11:13:47;99487.91;;;20.69;51.92
56671;BME280;42545;50.054;8.306;2023-07-02T11:16:19;99491.78;;;20.87;51.88
56671;BME280;42545;50.054;8.306;2023-07-02T11:18:48;99472.44;;;21.02;50.75
56671;BME280;42545;50.054;8.306;2023-07-02T11:21:14;99483.78;;;21.10;48.02
56671;BME280;42545;50.054;8.306;2023-07-02T11:23:41;99478.94;;;21.20;48.41
56671;BME280;42545;50.054;8.306;2023-07-02T11:26:08;99486.63;;;21.31;47.28
56671;BME280;42545;50.054;8.306;2023-07-02T11:28:35;99487.19;;;21.39;47.17
56671;BME280;42545;50.054;8.306;2023-07-02T11:31:02;99476.28;;;21.45;47.17
56671;BME280;42545;50.054;8.306;2023-07-02T11:33:36;99487.66;;;21.52;47.05
56671;BME280;42545;50.054;8.306;2023-07-02T11:36:03;99488.41;;;21.56;46.68
56671;BME280;42545;50.054;8.306;2023-07-02T11:38:30;99481.09;;;21.59;46.10
56671;BME280;42545;50.054;8.306;2023-07-02T11:40:57;99479.19;;;21.63;42.66
56671;BME280;42545;50.054;8.306;2023-07-02T11:43:25;99474.72;;;21.63;44.28
56671;BME280;42545;50.054;8.306;2023-07-02T11:45:52;99481.09;;;21.59;44.56
56671;BME280;42545;50.054;8.306;2023-07-02T11:48:18;99480.34;;;21.56;44.23
56671;BME280;42545;50.054;8.306;2023-07-02T11:50:46;99481.44;;;21.50;44.53
56671;BME280;42545;50.054;8.306;2023-07-02T11:53:13;99486.00;;;21.48;43.94
56671;BME280;42545;50.054;8.306;2023-07-02T11:55:40;99484.59;;;21.38;43.97
56671;BME280;42545;50.054;8.306;2023-07-02T11:58:06;99490.81;;;21.38;43.98
56671;BME280;42545;50.054;8.306;2023-07-02T12:00:33;99491.16;;;21.29;43.89
56671;BME280;42545;50.054;8.306;2023-07-02T12:03:00;99489.41;;;21.28;43.58
56671;BME280;42545;50.054;8.306;2023-07-02T12:05:26;99489.88;;;21.39;45.43
56671;BME280;42545;50.054;8.306;2023-07-02T12:07:55;99486.16;;;21.45;45.40
56671;BME280;42545;50.054;8.306;2023-07-02T12:10:21;99496.91;;;21.43;45.29
56671;BME280;42545;50.054;8.306;2023-07-02T12:12:48;99495.06;;;21.45;45.20
56671;BME280;42545;50.054;8.306;2023-07-02T12:15:14;99494.09;;;21.46;44.06
56671;BME280;42545;50.054;8.306;2023-07-02T12:17:41;99501.59;;;21.37;44.41
56671;BME280;42545;50.054;8.306;2023-07-02T12:20:09;99500.84;;;21.33;44.09
56671;BME280;42545;50.054;8.306;2023-07-02T12:22:35;99493.78;;;21.30;43.48
56671;BME280;42545;50.054;8.306;2023-07-02T12:25:05;99493.44;;;21.40;45.25
56671;BME280;42545;50.054;8.306;2023-07-02T12:27:31;99498.41;;;21.52;44.13
56671;BME280;42545;50.054;8.306;2023-07-02T12:29:58;99499.78;;;21.62;45.21
56671;BME280;42545;50.054;8.306;2023-07-02T12:32:24;99503.19;;;21.67;44.81
56671;BME280;42545;50.054;8.306;2023-07-02T12:34:51;99502.88;;;21.75;45.01
56671;BME280;42545;50.054;8.306;2023-07-02T12:37:18;99501.25;;;21.71;43.84
56671;BME280;42545;50.054;8.306;2023-07-02T12:39:45;99512.09;;;21.68;45.54
56671;BME280;42545;50.054;8.306;2023-07-02T12:42:13;99499.69;;;21.65;45.35
56671;BME280;42545;50.054;8.306;2023-07-02T12:44:40;99496.34;;;21.59;44.84
56671;BME280;42545;50.054;8.306;2023-07-02T12:47:07;99505.22;;;21.61;45.05
56671;BME280;42545;50.054;8.306;2023-07-02T12:49:34;99494.78;;;21.53;44.32
56671;BME280;42545;50.054;8.306;2023-07-02T12:52:00;99503.53;;;21.58;44.88
56671;BME280;42545;50.054;8.306;2023-07-02T12:54:28;99509.59;;;21.63;45.70
56671;BME280;42545;50.054;8.306;2023-07-02T12:56:54;99508.25;;;21.75;45.67
56671;BME280;42545;50.054;8.306;2023-07-02T12:59:22;99508.66;;;21.88;46.06